Time;durP1;ratioP1;P1;durP2;ratioP2;P2;SDS_P1;SDS_P2;PMS_P1;PMS_P2;Temp;Humidity;BMP_temperature;BMP_pressure;BME280_temperature;BME280_humidity;BME280_pressure;Samples;Min_cycle;Max_cycle;Signal;HPM_P1;HPM_P2
2023/09/19 00:01:08;;;;;;;6.50;0.00;;;13.80;99.90;;;;;;5054810;28;20496;-72
2023/09/19 00:03:37;;;;;;;4.65;0.50;;;13.80;99.90;;;;;;5054755;28;20121;-71
2023/09/19 00:06:04;;;;;;;3.28;0.10;;;13.70;99.90;;;;;;5054661;28;20017;-72
2023/09/19 00:08:30;;;;;;;2.28;0.10;;;13.80;99.90;;;;;;5054744;28;20107;-72
2023/09/19 00:10:56;;;;;;;5.68;0.25;;;13.70;99.90;;;;;;5053884;28;20530;-72
2023/09/19 00:13:22;;;;;;;0.68;0.00;;;13.80;99.90;;;;;;5054619;28;20044;-72
2023/09/19 00:15:48;;;;;;;2.92;0.50;;;13.80;99.90;;;;;;5054518;28;20013;-72
2023/09/19 00:18:15;;;;;;;3.50;0.00;;;13.80;99.90;;;;;;5036657;28;20044;-72
2023/09/19 00:20:41;;;;;;;4.22;0.00;;;13.90;99.90;;;;;;5054441;28;20032;-72
2023/09/19 00:23:10;;;;;;;3.03;0.10;;;13.90;99.90;;;;;;5054408;28;20021;-71
2023/09/19 00:25:37;;;;;;;1.33;0.00;;;13.90;99.90;;;;;;5054314;28;20535;-71
2023/09/19 00:28:04;;;;;;;4.22;0.43;;;14.00;99.90;;;;;;5054292;28;20021;-71
2023/09/19 00:30:30;;;;;;;1.83;0.52;;;14.00;99.90;;;;;;5054203;28;20017;-71
2023/09/19 00:32:56;;;;;;;4.47;0.10;;;14.10;99.90;;;;;;5054263;28;20384;-71
2023/09/19 00:35:25;;;;;;;1.50;0.00;;;14.10;99.90;;;;;;5054104;28;20025;-72
2023/09/19 00:37:51;;;;;;;2.55;0.47;;;14.10;99.90;;;;;;5054102;28;20028;-71
2023/09/19 00:40:17;;;;;;;5.50;0.17;;;14.20;99.90;;;;;;5054112;28;20036;-71
2023/09/19 00:42:44;;;;;;;2.15;0.20;;;14.20;99.90;;;;;;5054030;28;20083;-71
2023/09/19 00:45:11;;;;;;;4.80;0.00;;;14.30;99.90;;;;;;5053964;28;20036;-71
2023/09/19 00:47:50;;;;;;;4.53;0.10;;;14.30;99.90;;;;;;5053870;28;20017;-71
2023/09/19 00:50:22;;;;;;;3.42;0.43;;;14.20;99.90;;;;;;5036343;28;20039;-71
2023/09/19 00:52:50;;;;;;;1.45;0.00;;;14.20;99.90;;;;;;5053792;28;20480;-71
2023/09/19 00:55:19;;;;;;;5.03;0.30;;;14.30;99.90;;;;;;5053771;28;20043;-72
2023/09/19 00:57:45;;;;;;;2.67;0.30;;;14.30;99.90;;;;;;5053781;28;20025;-71
2023/09/19 01:00:14;;;;;;;0.68;0.00;;;14.20;99.90;;;;;;5053755;28;20021;-71
2023/09/19 01:02:42;;;;;;;3.30;0.30;;;14.20;99.90;;;;;;5053735;28;20032;-71
2023/09/19 01:05:09;;;;;;;1.33;0.00;;;14.20;99.90;;;;;;5053555;28;20028;-72
2023/09/19 01:07:36;;;;;;;3.65;0.90;;;14.20;99.90;;;;;;5053511;28;20120;-72
2023/09/19 01:10:05;;;;;;;4.30;0.10;;;14.20;99.90;;;;;;5053494;28;20021;-72
2023/09/19 01:12:40;;;;;;;2.40;0.10;;;14.20;99.90;;;;;;5053464;28;20017;-71
2023/09/19 01:15:21;;;;;;;7.22;0.98;;;14.10;99.90;;;;;;5053284;28;20067;-71
2023/09/19 01:18:02;;;;;;;1.92;0.10;;;14.20;99.90;;;;;;5053973;28;20040;-72
2023/09/19 01:20:37;;;;;;;1.05;0.00;;;14.20;99.90;;;;;;5053873;28;20064;-72
2023/09/19 01:23:20;;;;;;;0.30;0.10;;;14.20;99.90;;;;;;5053237;28;20060;-71
2023/09/19 01:26:18;;;;;;;10.07;0.55;;;14.20;99.90;;;;;;5035418;28;20527;-71
2023/09/19 01:28:57;;;;;;;5.10;0.43;;;14.20;99.90;;;;;;5053390;28;20031;-72
2023/09/19 01:31:24;;;;;;;3.20;0.00;;;14.10;99.90;;;;;;5053262;28;20021;-71
2023/09/19 01:34:01;;;;;;;3.35;0.00;;;14.00;99.90;;;;;;5053047;28;20388;-71
2023/09/19 01:36:36;;;;;;;1.23;0.00;;;14.00;99.90;;;;;;5053218;28;20029;-72
2023/09/19 01:39:08;;;;;;;9.20;0.10;;;14.00;99.90;;;;;;5053161;28;20032;-71
2023/09/19 01:42:04;;;;;;;4.38;0.00;;;14.00;99.90;;;;;;5053163;28;20025;-71
2023/09/19 01:44:49;;;;;;;4.90;0.45;;;14.00;99.90;;;;;;5053187;28;20021;-72
2023/09/19 01:47:37;;;;;;;3.13;0.00;;;13.90;99.90;;;;;;5035237;28;20106;-72
2023/09/19 01:50:31;;;;;;;1.90;0.00;;;13.90;99.90;;;;;;5053260;28;20372;-71
2023/09/19 01:53:15;;;;;;;4.13;0.22;;;14.00;99.90;;;;;;5052982;28;20032;-72
2023/09/19 01:55:51;;;;;;;7.85;0.47;;;13.90;99.90;;;;;;5053073;28;20057;-72
2023/09/19 01:58:26;;;;;;;2.38;0.00;;;14.00;99.90;;;;;;5035241;28;20029;-72
2023/09/19 02:00:54;;;;;;;2.35;0.38;;;14.00;99.90;;;;;;5053065;28;20021;-72
2023/09/19 02:03:24;;;;;;;4.40;0.05;;;14.00;99.90;;;;;;5052952;28;20017;-71
2023/09/19 02:05:51;;;;;;;1.42;0.00;;;14.00;99.90;;;;;;5052838;28;20032;-72
2023/09/19 02:08:19;;;;;;;5.88;0.00;;;14.10;99.90;;;;;;5034944;28;20126;-72
2023/09/19 02:10:48;;;;;;;4.85;0.00;;;14.10;99.90;;;;;;5035053;28;20398;-72
2023/09/19 02:13:18;;;;;;;1.70;0.17;;;14.10;99.90;;;;;;5053445;28;20024;-72
2023/09/19 02:15:44;;;;;;;9.93;0.60;;;14.10;99.90;;;;;;5052796;28;20033;-72
2023/09/19 02:18:11;;;;;;;2.83;0.10;;;14.20;99.90;;;;;;5035033;28;20396;-72
2023/09/19 02:20:37;;;;;;;1.20;0.00;;;14.30;99.90;;;;;;5053306;28;20025;-72
2023/09/19 02:23:03;;;;;;;4.35;0.00;;;14.30;99.90;;;;;;5034903;28;20035;-72
2023/09/19 02:25:29;;;;;;;7.28;0.17;;;14.30;99.90;;;;;;5052587;28;20029;-72
2023/09/19 02:27:58;;;;;;;4.90;0.10;;;14.30;99.90;;;;;;5052696;28;20033;-72
2023/09/19 02:30:25;;;;;;;4.75;0.32;;;14.30;99.90;;;;;;5053251;28;20029;-72
2023/09/19 02:32:51;;;;;;;7.85;0.20;;;14.30;99.90;;;;;;5052771;28;20468;-72
2023/09/19 02:35:19;;;;;;;3.83;0.32;;;14.30;99.90;;;;;;5056306;28;20044;-72
2023/09/19 02:37:45;;;;;;;8.00;0.10;;;14.20;99.90;;;;;;5056518;28;20021;-72
2023/09/19 02:40:18;;;;;;;3.55;0.22;;;14.30;99.90;;;;;;5056424;28;20100;-72
2023/09/19 02:42:46;;;;;;;4.57;0.30;;;14.30;99.90;;;;;;5056905;28;20024;-72
2023/09/19 02:45:12;;;;;;;4.50;0.00;;;14.20;99.90;;;;;;5056795;28;20380;-72
2023/09/19 02:47:40;;;;;;;6.72;0.95;;;14.10;99.90;;;;;;5056254;28;20025;-72
2023/09/19 02:50:06;;;;;;;8.13;0.10;;;14.10;99.90;;;;;;5056091;28;20033;-71
2023/09/19 02:52:31;;;;;;;8.70;0.22;;;14.10;99.90;;;;;;5056138;28;20100;-72
2023/09/19 02:54:57;;;;;;;6.07;0.60;;;14.00;99.90;;;;;;5038139;28;20070;-72
2023/09/19 02:57:24;;;;;;;2.78;0.32;;;14.00;99.90;;;;;;5056763;28;20491;-72
2023/09/19 02:59:49;;;;;;;5.07;0.38;;;14.00;99.90;;;;;;5038162;28;20021;-72
2023/09/19 03:02:15;;;;;;;5.28;0.40;;;14.00;99.90;;;;;;5056091;28;20033;-72
2023/09/19 03:04:41;;;;;;;9.93;0.20;;;14.00;99.90;;;;;;5038066;28;20036;-72
2023/09/19 03:07:07;;;;;;;7.78;0.60;;;14.00;99.90;;;;;;5038134;28;20021;-72
2023/09/19 03:09:32;;;;;;;5.00;0.10;;;13.90;99.90;;;;;;5038140;28;20024;-72
2023/09/19 03:11:59;;;;;;;4.50;0.15;;;13.90;99.90;;;;;;5037957;28;20013;-72
2023/09/19 03:14:25;;;;;;;5.22;0.25;;;13.90;99.90;;;;;;5037700;28;20025;-71
2023/09/19 03:16:52;;;;;;;6.25;0.55;;;13.80;99.90;;;;;;5055747;28;20028;-72
2023/09/19 03:19:17;;;;;;;6.90;0.65;;;13.90;99.90;;;;;;5056207;28;20024;-71
2023/09/19 03:21:43;;;;;;;5.88;0.68;;;13.90;99.90;;;;;;5037762;28;20025;-72
2023/09/19 03:24:09;;;;;;;4.50;0.03;;;13.90;99.90;;;;;;5055420;28;20121;-72
2023/09/19 03:26:35;;;;;;;5.28;0.30;;;13.90;99.90;;;;;;5055497;28;20031;-73
2023/09/19 03:29:06;;;;;;;13.27;1.35;;;13.90;99.90;;;;;;5055458;28;20107;-72
2023/09/19 03:31:32;;;;;;;5.57;0.60;;;13.80;99.90;;;;;;5056057;28;20032;-72
2023/09/19 03:33:57;;;;;;;3.42;0.40;;;13.80;99.90;;;;;;5055361;28;20029;-72
2023/09/19 03:36:23;;;;;;;8.63;1.13;;;13.70;99.90;;;;;;5055366;28;20104;-72
2023/09/19 03:38:48;;;;;;;5.65;0.35;;;13.70;99.90;;;;;;5037386;28;20025;-72
2023/09/19 03:41:17;;;;;;;7.13;0.55;;;13.60;99.90;;;;;;5055697;28;20040;-72
2023/09/19 03:43:42;;;;;;;6.68;0.80;;;13.70;99.90;;;;;;5055286;28;20499;-72
2023/09/19 03:46:08;;;;;;;6.13;0.50;;;13.60;99.90;;;;;;5053943;28;20029;-72
2023/09/19 03:48:33;;;;;;;12.20;0.82;;;13.70;99.90;;;;;;5036923;28;20037;-71
2023/09/19 03:50:59;;;;;;;4.15;0.63;;;13.70;99.90;;;;;;5055741;28;20103;-72
2023/09/19 03:53:25;;;;;;;6.82;0.20;;;;;;;;;;5037532;28;20036;-72
2023/09/19 03:55:50;;;;;;;4.72;0.30;;;13.70;99.90;;;;;;5055255;28;20028;-72
2023/09/19 03:58:16;;;;;;;7.05;0.43;;;13.80;99.90;;;;;;5055036;28;20103;-72
2023/09/19 04:00:41;;;;;;;4.95;0.00;;;13.70;99.90;;;;;;5037083;28;20029;-72
2023/09/19 04:03:07;;;;;;;6.28;0.95;;;13.70;99.90;;;;;;5055407;28;20021;-72
2023/09/19 04:05:33;;;;;;;5.05;0.43;;;13.60;99.90;;;;;;5055271;28;20025;-72
2023/09/19 04:07:59;;;;;;;4.55;0.20;;;13.60;99.90;;;;;;5054755;28;20392;-72
2023/09/19 04:10:25;;;;;;;3.88;0.17;;;13.70;99.90;;;;;;5054809;28;20029;-72
2023/09/19 04:12:54;;;;;;;6.47;0.43;;;13.70;99.90;;;;;;5055527;28;20127;-72
2023/09/19 04:15:22;;;;;;;5.82;0.10;;;13.70;99.90;;;;;;5055150;28;20017;-71
2023/09/19 04:17:51;;;;;;;6.35;1.05;;;13.80;99.90;;;;;;5055189;28;20027;-72
2023/09/19 04:20:20;;;;;;;9.80;0.22;;;13.80;99.90;;;;;;5054533;28;20029;-72
2023/09/19 04:22:46;;;;;;;12.27;0.10;;;13.80;99.90;;;;;;5054483;28;20028;-72
2023/09/19 04:25:12;;;;;;;3.47;0.13;;;13.80;99.90;;;;;;5036498;28;20108;-72
2023/09/19 04:27:38;;;;;;;11.00;0.22;;;13.80;99.90;;;;;;5054836;28;20439;-72
2023/09/19 04:30:10;;;;;;;9.20;1.65;;;13.70;99.90;;;;;;5036518;28;20091;-72
2023/09/19 04:32:36;;;;;;;8.27;1.08;;;13.70;99.90;;;;;;5054878;28;20075;-72
2023/09/19 04:35:05;;;;;;;7.00;0.40;;;13.70;99.90;;;;;;5054110;28;20025;-72
2023/09/19 04:37:31;;;;;;;4.43;0.40;;;13.70;99.90;;;;;;5036411;28;20103;-72
2023/09/19 04:39:57;;;;;;;4.63;0.30;;;13.70;99.90;;;;;;5054122;28;20041;-71
2023/09/19 04:42:24;;;;;;;5.13;0.10;;;13.70;99.90;;;;;;5054584;28;20036;-72
2023/09/19 04:44:52;;;;;;;4.95;0.17;;;13.70;99.90;;;;;;5054340;28;20431;-72
2023/09/19 04:47:18;;;;;;;5.10;0.22;;;13.70;99.90;;;;;;5054077;28;20519;-72
2023/09/19 04:49:43;;;;;;;4.32;0.20;;;13.70;99.90;;;;;;5035923;28;20033;-72
2023/09/19 04:52:09;;;;;;;3.42;0.20;;;13.70;99.90;;;;;;5053938;28;20025;-72
2023/09/19 04:54:34;;;;;;;4.07;0.17;;;13.80;99.90;;;;;;5054027;28;20017;-72
2023/09/19 04:57:00;;;;;;;3.55;0.28;;;13.70;99.90;;;;;;5053746;28;20029;-72
2023/09/19 04:59:28;;;;;;;1.10;0.45;;;13.70;99.90;;;;;;5053831;28;20075;-72
2023/09/19 05:01:53;;;;;;;3.83;0.40;;;13.70;99.90;;;;;;5053798;28;20387;-72
2023/09/19 05:04:19;;;;;;;2.88;0.38;;;13.70;99.90;;;;;;5053804;28;20026;-71
2023/09/19 05:06:44;;;;;;;4.80;0.20;;;13.70;99.90;;;;;;5054365;28;20037;-72
2023/09/19 05:09:10;;;;;;;12.32;0.70;;;13.70;99.90;;;;;;5053634;28;20476;-72
2023/09/19 05:11:38;;;;;;;5.25;0.45;;;13.80;99.90;;;;;;5053630;28;20086;-72
2023/09/19 05:14:03;;;;;;;7.88;1.00;;;13.80;99.90;;;;;;5053494;28;20100;-72
2023/09/19 05:16:31;;;;;;;6.10;0.73;;;13.80;99.90;;;;;;5054064;28;20100;-72
2023/09/19 05:18:59;;;;;;;8.02;0.10;;;13.80;99.90;;;;;;5053473;28;20078;-71
2023/09/19 05:21:28;;;;;;;3.95;0.10;;;13.70;99.90;;;;;;5054083;28;20531;-71
2023/09/19 05:23:54;;;;;;;8.55;1.55;;;13.70;99.90;;;;;;5053344;28;20036;-71
2023/09/19 05:26:20;;;;;;;5.43;0.20;;;13.70;99.90;;;;;;5053442;28;20032;-72
2023/09/19 05:28:47;;;;;;;9.98;0.38;;;13.70;99.90;;;;;;5053226;28;20450;-71
2023/09/19 05:31:14;;;;;;;4.60;0.15;;;13.70;99.90;;;;;;5053349;28;20491;-72
2023/09/19 05:33:39;;;;;;;6.00;0.90;;;13.70;99.90;;;;;;5053390;28;20020;-71
2023/09/19 05:36:05;;;;;;;5.05;0.08;;;13.70;99.90;;;;;;5053136;28;20025;-72
2023/09/19 05:38:32;;;;;;;4.32;0.15;;;13.60;99.90;;;;;;5053212;28;20028;-72
2023/09/19 05:40:58;;;;;;;3.75;0.35;;;13.70;99.90;;;;;;5053244;28;20025;-72
2023/09/19 05:43:24;;;;;;;5.18;0.75;;;13.70;99.90;;;;;;5053172;28;20024;-72
2023/09/19 05:45:51;;;;;;;12.60;0.82;;;13.80;99.90;;;;;;5035273;28;20021;-72
2023/09/19 05:48:17;;;;;;;9.07;0.10;;;13.70;99.90;;;;;;5053683;28;20024;-72
2023/09/19 05:50:43;;;;;;;8.50;0.55;;;13.90;99.90;;;;;;5052926;28;20021;-72
2023/09/19 05:53:12;;;;;;;5.78;0.20;;;14.00;99.90;;;;;;5053080;28;20387;-71
2023/09/19 05:55:38;;;;;;;6.30;0.80;;;14.00;99.90;;;;;;5053022;28;20037;-72
2023/09/19 05:58:04;;;;;;;4.30;0.10;;;14.00;99.90;;;;;;5053019;28;20036;-72
2023/09/19 06:00:31;;;;;;;4.82;0.10;;;14.00;99.90;;;;;;5052986;28;20029;-72
2023/09/19 06:02:58;;;;;;;4.97;0.63;;;14.10;99.90;;;;;;5066112;28;20129;-71
2023/09/19 06:05:27;;;;;;;5.18;0.22;;;14.10;99.90;;;;;;5054820;28;20028;-71
2023/09/19 06:07:53;;;;;;;;;;;14.10;99.90;;;;;;5073328;28;20017;-71
2023/09/19 06:10:23;;;;;;;8.63;0.20;;;14.10;99.90;;;;;;5076729;28;19904;-71
2023/09/19 06:12:48;;;;;;;1.88;0.28;;;14.20;99.90;;;;;;5076965;28;20040;-71
2023/09/19 06:15:15;;;;;;;10.27;0.20;;;14.20;99.90;;;;;;5076818;28;20075;-71
2023/09/19 06:17:56;;;;;;;7.88;0.95;;;14.20;99.90;;;;;;5076806;28;20028;-71
2023/09/19 06:20:23;;;;;;;8.05;0.47;;;14.30;99.90;;;;;;5058895;28;20081;-71
2023/09/19 06:22:49;;;;;;;10.95;0.47;;;14.30;99.90;;;;;;5058888;28;20391;-71
2023/09/19 06:25:19;;;;;;;5.68;1.02;;;14.30;99.90;;;;;;5058655;28;20032;-71
2023/09/19 06:27:45;;;;;;;8.27;0.30;;;14.40;99.90;;;;;;5076886;28;20040;-71
2023/09/19 06:30:12;;;;;;;5.82;0.15;;;14.40;99.90;;;;;;5077221;28;20024;-71
2023/09/19 06:32:37;;;;;;;6.68;0.22;;;14.40;99.90;;;;;;5076582;28;20025;-71
2023/09/19 06:35:07;;;;;;;7.43;0.20;;;14.50;99.90;;;;;;5076437;28;20020;-71
2023/09/19 06:37:34;;;;;;;3.30;0.40;;;14.50;99.90;;;;;;5076470;28;20024;-71
2023/09/19 06:40:00;;;;;;;7.35;0.10;;;14.50;99.90;;;;;;5076491;28;20016;-71
2023/09/19 06:42:25;;;;;;;3.95;0.30;;;14.60;99.90;;;;;;5076386;28;20082;-71
2023/09/19 06:44:51;;;;;;;6.90;0.55;;;14.70;99.90;;;;;;5076587;28;20096;-71
2023/09/19 06:47:17;;;;;;;3.70;0.47;;;14.70;99.90;;;;;;5076197;28;20075;-71
2023/09/19 06:49:43;;;;;;;6.88;0.20;;;14.70;99.90;;;;;;5058277;28;20024;-71
2023/09/19 06:52:09;;;;;;;7.00;0.30;;;14.70;99.90;;;;;;5076755;28;20020;-71
2023/09/19 06:54:35;;;;;;;5.68;0.65;;;14.70;99.90;;;;;;5076197;28;20025;-71
2023/09/19 06:57:01;;;;;;;6.28;0.65;;;14.70;99.90;;;;;;5076091;28;20066;-71
2023/09/19 06:59:27;;;;;;;11.77;0.82;;;14.80;99.90;;;;;;5076055;28;20016;-71
2023/09/19 07:01:52;;;;;;;7.70;0.80;;;14.80;99.90;;;;;;5075990;28;20032;-71
2023/09/19 07:04:19;;;;;;;5.18;0.10;;;14.90;99.90;;;;;;5075930;28;20020;-71
2023/09/19 07:06:50;;;;;;;4.63;0.28;;;14.90;99.90;;;;;;5075936;28;20077;-71
2023/09/19 07:09:17;;;;;;;10.93;0.52;;;14.90;99.90;;;;;;5060843;28;20037;-71
2023/09/19 07:11:43;;;;;;;8.38;1.10;;;15.00;99.90;;;;;;5055824;28;20031;-71
2023/09/19 07:14:11;;;;;;;10.55;0.40;;;15.10;99.90;;;;;;5038121;28;20023;-71
2023/09/19 07:16:38;;;;;;;5.32;0.57;;;15.10;99.90;;;;;;5055580;28;20387;-71
2023/09/19 07:19:04;;;;;;;6.72;0.10;;;15.10;99.90;;;;;;5055543;28;20096;-71
2023/09/19 07:21:29;;;;;;;9.95;0.22;;;15.20;99.90;;;;;;5055730;28;20132;-71
2023/09/19 07:23:55;;;;;;;11.98;0.93;;;15.30;99.90;;;;;;5055586;28;20020;-71
2023/09/19 07:26:21;;;;;;;10.13;0.65;;;15.30;99.90;;;;;;5055548;28;20100;-71
2023/09/19 07:28:46;;;;;;;3.00;0.55;;;15.30;99.90;;;;;;5055505;28;20017;-71
2023/09/19 07:31:14;;;;;;;7.45;0.82;;;15.30;99.90;;;;;;5055397;28;20025;-71
2023/09/19 07:33:40;;;;;;;6.75;0.20;;;15.40;99.90;;;;;;5055468;28;20388;-71
2023/09/19 07:36:06;;;;;;;4.90;0.15;;;15.50;99.90;;;;;;5055332;28;20017;-71
2023/09/19 07:38:32;;;;;;;9.02;0.98;;;15.60;99.90;;;;;;5037782;28;20078;-71
2023/09/19 07:41:02;;;;;;;7.25;0.38;;;15.70;99.90;;;;;;5055886;28;20155;-71
2023/09/19 07:43:28;;;;;;;10.75;0.93;;;15.70;99.90;;;;;;5055313;28;20021;-71
2023/09/19 07:45:53;;;;;;;6.47;0.60;;;15.80;99.90;;;;;;5055180;28;20036;-71
2023/09/19 07:48:19;;;;;;;3.90;0.32;;;15.80;99.90;;;;;;5055665;28;20029;-71
2023/09/19 07:50:45;;;;;;;7.63;0.73;;;15.90;99.90;;;;;;5055005;28;20029;-71
2023/09/19 07:53:13;;;;;;;4.03;0.30;;;15.90;99.90;;;;;;5055138;28;20018;-71
2023/09/19 07:55:40;;;;;;;7.57;0.35;;;15.90;99.90;;;;;;5055133;28;20035;-71
2023/09/19 07:58:07;;;;;;;8.00;0.40;;;15.90;99.90;;;;;;5054883;28;20029;-71
2023/09/19 08:00:34;;;;;;;2.38;0.25;;;15.80;99.90;;;;;;5037023;28;20028;-71
2023/09/19 08:03:01;;;;;;;8.98;1.27;;;15.90;99.90;;;;;;5054861;28;20021;-71
2023/09/19 08:05:26;;;;;;;6.70;0.65;;;15.90;99.90;;;;;;5054714;28;20081;-71
2023/09/19 08:07:53;;;;;;;15.45;0.60;;;16.00;99.90;;;;;;5054692;28;20028;-71
2023/09/19 08:10:19;;;;;;;9.13;0.20;;;16.10;99.90;;;;;;5055354;28;20021;-71
2023/09/19 08:12:46;;;;;;;4.93;0.50;;;16.10;99.90;;;;;;5054771;28;20476;-71
2023/09/19 08:15:16;;;;;;;6.90;0.68;;;16.10;99.90;;;;;;5054598;28;20028;-71
2023/09/19 08:17:42;;;;;;;14.32;1.60;;;16.10;99.90;;;;;;5054730;28;20033;-71
2023/09/19 08:20:15;;;;;;;7.47;0.50;;;16.20;99.90;;;;;;5054555;28;20025;-71
2023/09/19 08:22:44;;;;;;;7.65;0.60;;;16.20;99.90;;;;;;5054541;28;20103;-71
2023/09/19 08:25:09;;;;;;;8.00;0.38;;;16.30;99.90;;;;;;5054635;28;20492;-71
2023/09/19 08:27:36;;;;;;;9.57;0.80;;;16.40;99.90;;;;;;5054947;28;20025;-70
2023/09/19 08:30:02;;;;;;;8.55;0.55;;;16.50;99.90;;;;;;5054455;28;20488;-71
2023/09/19 08:32:29;;;;;;;7.78;0.70;;;16.70;99.90;;;;;;5054172;28;20021;-71
2023/09/19 08:34:54;;;;;;;9.90;0.47;;;16.70;99.90;;;;;;5035807;28;20027;-71
2023/09/19 08:37:20;;;;;;;10.60;0.68;;;16.80;99.90;;;;;;5054209;28;20083;-71
2023/09/19 08:39:46;;;;;;;7.30;0.63;;;16.70;99.90;;;;;;5054201;28;20546;-71
2023/09/19 08:42:12;;;;;;;9.30;0.38;;;16.70;99.90;;;;;;5054733;28;20120;-71
2023/09/19 08:44:40;;;;;;;7.88;0.20;;;16.70;99.90;;;;;;5053995;28;20047;-71
2023/09/19 08:47:11;;;;;;;7.40;0.10;;;16.70;99.90;;;;;;5036134;28;20017;-71
2023/09/19 08:50:00;;;;;;;10.43;0.32;;;16.70;99.90;;;;;;5053892;28;20021;-71
2023/09/19 08:52:33;;;;;;;7.75;0.65;;;16.70;99.90;;;;;;5036093;28;20025;-71
2023/09/19 08:55:04;;;;;;;12.48;1.27;;;16.70;99.90;;;;;;5054419;28;20406;-71
2023/09/19 08:57:35;;;;;;;7.70;0.90;;;16.70;99.90;;;;;;5035984;28;20472;-71
2023/09/19 09:00:04;;;;;;;10.82;1.27;;;16.80;99.90;;;;;;5036117;28;20029;-71
2023/09/19 09:02:31;;;;;;;10.55;1.13;;;16.90;99.90;;;;;;5053785;28;20469;-71
2023/09/19 09:04:58;;;;;;;13.40;0.75;;;16.90;99.90;;;;;;5053915;28;20399;-71
2023/09/19 09:07:28;;;;;;;6.13;0.75;;;17.10;99.90;;;;;;5053699;28;20024;-71
2023/09/19 09:09:54;;;;;;;9.55;0.40;;;17.10;99.90;;;;;;5035825;28;20392;-71
2023/09/19 09:12:20;;;;;;;9.07;0.73;;;17.10;99.90;;;;;;5053631;28;20017;-71
2023/09/19 09:14:49;;;;;;;7.47;0.15;;;17.20;99.90;;;;;;5053559;28;20024;-71
2023/09/19 09:17:17;;;;;;;6.82;0.43;;;17.50;99.90;;;;;;5053594;28;20021;-71
2023/09/19 09:19:43;;;;;;;3.25;0.10;;;17.70;99.90;;;;;;5053513;28;20076;-71
2023/09/19 09:22:10;;;;;;;6.45;0.70;;;17.90;99.90;;;;;;5035639;28;20048;-71
2023/09/19 09:24:38;;;;;;;4.22;0.40;;;17.80;99.90;;;;;;5053370;28;20083;-71
2023/09/19 09:27:07;;;;;;;8.17;0.47;;;17.70;99.90;;;;;;5053342;28;20056;-71
2023/09/19 09:29:51;;;;;;;11.10;0.68;;;17.80;99.90;;;;;;5053500;28;20024;-71
2023/09/19 09:32:33;;;;;;;4.82;0.60;;;18.00;99.90;;;;;;5053337;28;20502;-71
2023/09/19 09:35:00;;;;;;;6.30;0.03;;;18.00;99.90;;;;;;5053233;28;20134;-71
2023/09/19 09:37:28;;;;;;;4.15;0.70;;;18.00;99.90;;;;;;5053239;28;20031;-71
2023/09/19 09:42:40;;;;;;;8.88;0.57;;;18.20;99.90;;;;;;5053509;28;20091;-71
2023/09/19 09:45:28;;;;;;;10.80;0.85;;;18.20;99.90;;;;;;5053339;28;20025;-71
2023/09/19 09:47:55;;;;;;;10.25;0.55;;;18.30;99.90;;;;;;5052922;28;20029;-71
2023/09/19 09:50:36;;;;;;;4.07;0.32;;;18.30;99.90;;;;;;5053067;28;20434;-71
2023/09/19 09:53:06;;;;;;;6.78;0.20;;;18.40;99.90;;;;;;5053094;28;20044;-71
2023/09/19 09:55:59;;;;;;;5.75;0.57;;;18.40;99.90;;;;;;5035158;28;20014;-71
2023/09/19 09:58:29;;;;;;;8.10;0.30;;;18.30;99.90;;;;;;5042948;28;20060;-71
2023/09/19 10:01:00;;;;;;;2.95;0.05;;;18.20;99.90;;;;;;5035196;28;20029;-71
2023/09/19 10:03:39;;;;;;;5.25;0.00;;;18.30;99.90;;;;;;5053542;28;20499;-71
2023/09/19 10:06:19;;;;;;;8.27;1.45;;;18.50;99.90;;;;;;5052953;28;20098;-71
2023/09/19 10:11:39;;;;;;;6.32;0.32;;;18.30;99.90;;;;;;5053182;28;20033;-71
2023/09/19 10:14:09;;;;;;;6.15;0.32;;;18.20;99.90;;;;;;5052940;28;20025;-71
2023/09/19 10:16:39;;;;;;;3.17;0.28;;;18.30;99.90;;;;;;5053076;28;20373;-71
2023/09/19 10:19:08;;;;;;;6.35;0.40;;;18.40;99.90;;;;;;5053409;28;20461;-71
2023/09/19 10:21:36;;;;;;;5.70;0.82;;;18.50;99.90;;;;;;5052828;28;20021;-71
2023/09/19 10:24:04;;;;;;;4.60;0.40;;;18.70;99.90;;;;;;5053314;28;20025;-71
2023/09/19 10:26:30;;;;;;;;;;;18.80;99.90;;;;;;5035361;28;20017;-71
2023/09/19 10:29:00;;;;;;;10.13;0.17;;;18.90;99.90;;;;;;5034845;28;19908;-71
2023/09/19 10:31:28;;;;;;;3.72;0.60;;;19.10;99.90;;;;;;5052829;28;20021;-71
2023/09/19 10:33:56;;;;;;;12.67;0.50;;;19.20;99.90;;;;;;5052791;28;20491;-71
2023/09/19 10:36:27;;;;;;;8.65;0.55;;;19.40;99.90;;;;;;5052680;28;20267;-71
2023/09/19 10:38:57;;;;;;;1.65;0.13;;;19.50;99.90;;;;;;5052796;28;20024;-71
2023/09/19 10:41:25;;;;;;;6.05;0.10;;;19.60;99.90;;;;;;5053591;28;20028;-71
2023/09/19 10:43:54;;;;;;;7.72;0.20;;;19.60;99.90;;;;;;5052459;28;20115;-71
2023/09/19 10:46:20;;;;;;;2.53;0.40;;;19.60;99.90;;;;;;5053105;28;20028;-71
2023/09/19 10:48:48;;;;;;;3.50;0.32;;;19.70;99.90;;;;;;5052118;28;20029;-71
2023/09/19 10:51:24;;;;;;;2.85;0.00;;;19.80;99.90;;;;;;5034788;28;20090;-71
2023/09/19 10:54:20;;;;;;;5.28;0.35;;;19.60;99.90;;;;;;5034646;28;20017;-71
2023/09/19 10:56:50;;;;;;;5.47;0.43;;;19.60;99.90;;;;;;5055273;28;20033;-71
2023/09/19 10:59:18;;;;;;;7.63;0.20;;;19.70;99.90;;;;;;5038415;28;20025;-71
2023/09/19 11:01:47;;;;;;;6.15;0.22;;;19.70;99.90;;;;;;5056127;28;20017;-71
2023/09/19 11:04:25;;;;;;;3.38;0.20;;;19.70;99.90;;;;;;5056021;28;20431;-71
2023/09/19 11:07:00;;;;;;;5.40;0.28;;;19.70;99.90;;;;;;5056077;28;20025;-71
2023/09/19 11:09:54;;;;;;;9.55;0.30;;;19.70;99.90;;;;;;5055888;28;20070;-71
2023/09/19 11:12:35;;;;;;;5.95;0.10;;;19.70;99.90;;;;;;5056422;28;20017;-71
2023/09/19 11:15:07;;;;;;;3.40;0.20;;;19.80;99.90;;;;;;5055761;28;20116;-71
2023/09/19 11:17:46;;;;;;;5.18;0.10;;;19.60;99.90;;;;;;5056336;28;20480;-70
2023/09/19 11:22:49;;;;;;;4.05;0.43;;;19.40;99.90;;;;;;5055927;28;20064;-71
2023/09/19 11:25:30;;;;;;;1.08;0.43;;;19.30;99.90;;;;;;5055511;28;20476;-71
2023/09/19 11:28:05;;;;;;;5.38;0.10;;;19.20;99.90;;;;;;5037704;28;20033;-71
2023/09/19 11:30:36;;;;;;;0.73;0.30;;;19.10;99.90;;;;;;5055509;28;20100;-71
2023/09/19 11:33:22;;;;;;;5.75;0.20;;;19.10;99.90;;;;;;5055431;28;20369;-71
2023/09/19 11:36:18;;;;;;;3.38;0.20;;;19.10;99.90;;;;;;5037594;28;20369;-71
2023/09/19 11:38:50;;;;;;;2.15;0.28;;;19.10;99.90;;;;;;5055957;28;20025;-71
2023/09/19 11:41:29;;;;;;;3.63;0.20;;;19.10;99.90;;;;;;5055927;28;20025;-71
2023/09/19 11:44:00;;;;;;;0.30;0.00;;;19.00;99.90;;;;;;5055351;28;20032;-71
2023/09/19 11:46:28;;;;;;;2.15;0.47;;;19.00;99.90;;;;;;5037422;28;20029;-71
2023/09/19 11:48:54;;;;;;;5.32;0.13;;;19.10;99.90;;;;;;5055090;28;20112;-70
2023/09/19 11:51:28;;;;;;;4.38;0.55;;;19.20;99.90;;;;;;5037208;28;20112;-71
2023/09/19 11:53:55;;;;;;;2.17;0.08;;;19.50;99.90;;;;;;5055049;28;20031;-71
2023/09/19 11:56:24;;;;;;;1.58;0.10;;;19.50;99.90;;;;;;5055038;28;20017;-71
2023/09/19 11:58:53;;;;;;;;;;;19.70;99.90;;;;;;5055417;28;20139;-71
2023/09/19 12:01:50;;;;;;;2.97;0.70;;;19.70;99.90;;;;;;5054939;28;20379;-71
2023/09/19 12:04:19;;;;;;;3.88;0.00;;;19.50;99.90;;;;;;5054045;28;20037;-71
2023/09/19 12:06:57;;;;;;;4.13;0.00;;;19.30;99.90;;;;;;5053793;28;20377;-71
2023/09/19 12:09:24;;;;;;;7.55;0.10;;;19.10;99.90;;;;;;5054864;28;20477;-71
2023/09/19 12:11:51;;;;;;;1.38;0.22;;;19.00;99.90;;;;;;5054732;28;20020;-71
2023/09/19 12:14:26;;;;;;;1.92;0.00;;;18.90;99.90;;;;;;5054543;28;20021;-71
2023/09/19 12:16:55;;;;;;;4.75;0.00;;;18.80;99.90;;;;;;5055271;28;20025;-71
2023/09/19 12:19:21;;;;;;;;;;;18.80;99.90;;;;;;5037108;28;20488;-71
2023/09/19 12:21:59;;;;;;;3.45;0.40;;;18.70;99.90;;;;;;5054574;28;19905;-71
2023/09/19 12:24:29;;;;;;;2.60;0.00;;;18.70;99.90;;;;;;5036664;28;20052;-71
2023/09/19 12:27:01;;;;;;;2.05;0.20;;;18.70;99.90;;;;;;5036610;28;20075;-71
2023/09/19 12:29:29;;;;;;;5.43;0.10;;;18.70;99.90;;;;;;5037179;28;20060;-71
2023/09/19 12:31:57;;;;;;;4.50;0.40;;;18.70;99.90;;;;;;5054487;28;20028;-71
2023/09/19 12:34:27;;;;;;;5.77;0.40;;;18.70;99.90;;;;;;5036529;28;20048;-71
2023/09/19 12:37:15;;;;;;;2.17;0.00;;;18.70;99.90;;;;;;5054310;28;20248;-71
2023/09/19 12:39:53;;;;;;;2.17;0.28;;;18.70;99.90;;;;;;5054316;28;20358;-71
2023/09/19 12:42:32;;;;;;;1.30;0.08;;;18.70;99.90;;;;;;5054275;28;20542;-71
2023/09/19 12:45:00;;;;;;;0.52;0.00;;;18.70;99.90;;;;;;5054117;28;20498;-71
2023/09/19 12:47:29;;;;;;;;;;;18.90;99.90;;;;;;5036641;28;20052;-71
2023/09/19 12:50:18;;;;;;;1.52;0.00;;;19.10;99.90;;;;;;5053952;28;20341;-71
2023/09/19 12:52:48;;;;;;;3.05;0.40;;;19.30;99.90;;;;;;5054152;28;20027;-71
2023/09/19 12:55:29;;;;;;;5.40;0.40;;;19.30;99.90;;;;;;5054542;28;20102;-71
2023/09/19 12:58:09;;;;;;;3.28;0.00;;;19.30;99.90;;;;;;5054279;28;20033;-71
2023/09/19 13:00:42;;;;;;;0.52;0.00;;;19.20;99.90;;;;;;5053916;28;20553;-71
2023/09/19 13:03:17;;;;;;;2.55;0.05;;;19.00;99.90;;;;;;5053809;28;20039;-71
2023/09/19 13:05:50;;;;;;;0.85;0.00;;;18.90;99.90;;;;;;5035961;28;20133;-70
2023/09/19 13:08:26;;;;;;;2.97;0.28;;;18.60;99.90;;;;;;5053872;28;20064;-70